Terminal Aerodrome Forecast
Issued by NWS Memphis, TN

Home | Current Version | Previous Version | Text Only | Print | Product List | Glossary On
Versions: 1 2 3 4 5 6 7 8 9 10 11 12 13 14 15
000
FTUS44 KMEG 301735
TAFMKL
TAF
KMKL 301735Z 3018/3118 15005KT P6SM VCTS SCT050CB SCT100
     FM310100 13003KT P6SM SCT100 SCT250
      TEMPO 3109/3112 4SM BR
     FM311600 13003KT P6SM SCT030 SCT250=

USA.gov is the U.S. government's official web portal to all federal, state and local government web resources and services.